createdAt,value
2019-01-18T00:00:57.690Z,9.13
2019-01-18T00:03:27.852Z,16.73
2019-01-18T00:05:57.933Z,14.07
2019-01-18T00:08:28.045Z,11.63
2019-01-18T00:10:58.108Z,9.98
2019-01-18T00:13:28.202Z,10.43
2019-01-18T00:15:58.275Z,12.47
2019-01-18T00:18:28.370Z,9.43
2019-01-18T00:20:58.511Z,8.10
2019-01-18T00:23:40.941Z,9.23
2019-01-18T00:26:11.014Z,8.83
2019-01-18T00:28:41.107Z,8.60
2019-01-18T00:31:11.281Z,6.40
2019-01-18T00:33:41.363Z,9.55
2019-01-18T00:36:11.445Z,7.95
2019-01-18T00:38:41.539Z,6.25
2019-01-18T00:41:11.604Z,5.75
2019-01-18T00:43:41.700Z,5.58
2019-01-18T00:46:11.762Z,6.40
2019-01-18T00:48:41.855Z,5.05
2019-01-18T00:51:11.920Z,5.78
2019-01-18T00:53:42.010Z,8.93
2019-01-18T00:56:12.074Z,6.50
2019-01-18T00:58:42.315Z,6.05
2019-01-18T01:01:12.379Z,5.25
2019-01-18T01:03:42.464Z,6.75
2019-01-18T01:06:12.528Z,7.12
2019-01-18T01:08:42.686Z,6.70
2019-01-18T01:11:12.759Z,6.15
2019-01-18T01:13:42.849Z,6.33
2019-01-18T01:16:12.923Z,4.37
2019-01-18T01:18:43.016Z,2.17
2019-01-18T01:21:13.084Z,5.20
2019-01-18T01:23:43.217Z,4.05
2019-01-18T01:26:13.244Z,3.80
2019-01-18T01:28:43.345Z,2.55
2019-01-18T01:31:13.417Z,5.80
2019-01-18T01:33:43.519Z,5.08
2019-01-18T01:36:13.595Z,5.10
2019-01-18T01:38:43.693Z,2.10
2019-01-18T01:41:13.784Z,3.62
2019-01-18T01:43:43.912Z,3.40
2019-01-18T01:46:14.018Z,2.00
2019-01-18T01:48:56.396Z,5.35
2019-01-18T01:51:26.478Z,4.78
2019-01-18T01:53:56.604Z,4.53
2019-01-18T01:56:26.682Z,3.77
2019-01-18T01:59:09.284Z,2.50
2019-01-18T02:01:39.369Z,8.00
2019-01-18T02:04:09.471Z,3.55
2019-01-18T02:06:39.554Z,9.10
2019-01-18T02:09:09.654Z,2.90
2019-01-18T02:11:39.734Z,4.67
2019-01-18T02:14:09.831Z,5.78
2019-01-18T02:16:39.909Z,4.12
2019-01-18T02:19:10.014Z,5.37
2019-01-18T02:21:40.116Z,4.67
2019-01-18T02:24:10.304Z,6.55
2019-01-18T02:26:40.401Z,4.95
2019-01-18T02:29:10.476Z,6.12
2019-01-18T02:31:40.574Z,3.55
2019-01-18T02:34:10.649Z,4.53
2019-01-18T02:36:41.413Z,3.60
2019-01-18T02:39:11.522Z,2.47
2019-01-18T02:41:41.612Z,6.17
2019-01-18T02:44:11.696Z,5.28
2019-01-18T02:46:41.793Z,2.45
2019-01-18T02:49:31.325Z,3.85
2019-01-18T02:52:01.407Z,3.02
2019-01-18T02:54:31.507Z,4.33
2019-01-18T02:57:01.602Z,4.22
2019-01-18T02:59:31.677Z,7.33
2019-01-18T03:02:01.782Z,8.80
2019-01-18T03:04:31.864Z,3.58
2019-01-18T03:07:02.439Z,3.02
2019-01-18T03:09:33.081Z,6.15
2019-01-18T03:12:03.192Z,7.12
2019-01-18T03:14:33.324Z,5.87
2019-01-18T03:17:03.413Z,3.37
2019-01-18T03:19:33.503Z,6.45
2019-01-18T03:22:03.593Z,7.83
2019-01-18T03:24:33.668Z,4.42
2019-01-18T03:27:04.952Z,6.37
2019-01-18T03:29:35.089Z,5.28
2019-01-18T03:32:05.224Z,5.10
2019-01-18T03:34:35.263Z,5.03
2019-01-18T03:37:05.395Z,3.83
2019-01-18T03:39:35.477Z,4.22
2019-01-18T03:42:05.654Z,6.05
2019-01-18T03:44:35.736Z,4.12
2019-01-18T03:47:05.832Z,9.25
2019-01-18T03:49:35.916Z,3.60
2019-01-18T03:52:06.024Z,5.58
2019-01-18T03:54:36.101Z,4.05
2019-01-18T03:57:06.201Z,8.08
2019-01-18T03:59:36.285Z,8.00
2019-01-18T04:02:06.387Z,8.13
2019-01-18T04:04:36.516Z,4.90
2019-01-18T04:07:06.607Z,4.33
2019-01-18T04:09:37.322Z,3.58
2019-01-18T04:12:07.454Z,13.32
2019-01-18T04:14:37.515Z,7.92
2019-01-18T04:17:07.681Z,6.45
2019-01-18T04:19:37.758Z,5.50
2019-01-18T04:22:07.854Z,7.97
2019-01-18T04:24:38.003Z,3.75
2019-01-18T04:27:08.098Z,11.12
2019-01-18T04:29:38.174Z,4.42
2019-01-18T04:32:08.273Z,7.03
2019-01-18T04:34:38.348Z,5.62
2019-01-18T04:37:08.446Z,5.30
2019-01-18T04:39:38.526Z,7.22
2019-01-18T04:42:08.633Z,4.70
2019-01-18T04:44:38.709Z,6.67
2019-01-18T04:47:09.172Z,4.00
2019-01-18T04:49:39.251Z,5.80
2019-01-18T04:52:09.454Z,9.13
2019-01-18T04:54:39.516Z,5.70
2019-01-18T04:57:09.618Z,9.05
2019-01-18T04:59:39.698Z,8.18
2019-01-18T05:02:09.805Z,6.45
2019-01-18T05:04:39.885Z,9.03
2019-01-18T05:07:09.987Z,8.03
2019-01-18T05:09:40.062Z,7.85
2019-01-18T05:12:10.166Z,4.28
2019-01-18T05:14:40.249Z,7.03
2019-01-18T05:17:10.346Z,7.22
2019-01-18T05:19:41.584Z,3.87
2019-01-18T05:22:11.799Z,5.85
2019-01-18T05:24:49.081Z,4.22
2019-01-18T05:27:13.679Z,4.78
2019-01-18T05:29:43.777Z,7.42
2019-01-18T05:32:26.669Z,3.22
2019-01-18T05:34:56.755Z,10.13
2019-01-18T05:37:26.855Z,4.90
2019-01-18T05:39:56.939Z,4.75
2019-01-18T05:42:27.067Z,6.40
2019-01-18T05:44:58.133Z,9.85
2019-01-18T05:47:28.236Z,5.92
2019-01-18T05:49:58.324Z,8.63
2019-01-18T05:52:28.423Z,5.40
2019-01-18T05:54:58.502Z,4.00
2019-01-18T05:57:28.618Z,3.30
2019-01-18T05:59:58.706Z,5.47
2019-01-18T06:02:28.813Z,5.12
2019-01-18T06:04:59.570Z,5.33
2019-01-18T06:07:29.671Z,4.53
2019-01-18T06:09:59.811Z,3.42
2019-01-18T06:12:29.919Z,2.33
2019-01-18T06:14:59.996Z,3.87
2019-01-18T06:17:30.103Z,5.28
2019-01-18T06:20:00.235Z,4.42
2019-01-18T06:22:30.286Z,4.87
2019-01-18T06:25:00.362Z,3.50
2019-01-18T06:27:30.463Z,4.12
2019-01-18T06:30:00.548Z,4.05
2019-01-18T06:32:30.654Z,2.22
2019-01-18T06:35:00.745Z,3.17
2019-01-18T06:37:30.858Z,1.25
2019-01-18T06:40:00.935Z,4.97
2019-01-18T06:42:31.041Z,6.42
2019-01-18T06:45:01.165Z,3.92
2019-01-18T06:47:31.308Z,2.58
2019-01-18T06:50:01.390Z,1.02
2019-01-18T06:52:31.491Z,2.00
2019-01-18T06:55:01.574Z,4.15
2019-01-18T06:57:31.681Z,1.35
2019-01-18T07:00:01.765Z,3.22
2019-01-18T07:02:31.867Z,1.62
2019-01-18T07:05:01.970Z,1.40
2019-01-18T07:07:32.073Z,1.47
2019-01-18T07:10:02.151Z,4.72
2019-01-18T07:12:32.256Z,2.40
2019-01-18T07:15:02.338Z,1.37
2019-01-18T07:17:32.439Z,1.20
2019-01-18T07:20:02.963Z,2.80
2019-01-18T07:22:33.124Z,1.40
2019-01-18T07:25:03.234Z,2.70
2019-01-18T07:27:33.322Z,1.82
2019-01-18T07:30:05.131Z,3.20
2019-01-18T07:32:35.713Z,1.75
2019-01-18T07:35:08.575Z,2.67
2019-01-18T07:37:38.653Z,1.50
2019-01-18T07:40:11.169Z,3.05
2019-01-18T07:42:41.256Z,2.47
2019-01-18T07:45:24.730Z,2.12
2019-01-18T07:47:54.835Z,2.75
2019-01-18T07:50:24.922Z,3.45
2019-01-18T07:52:55.023Z,2.75
2019-01-18T07:55:25.103Z,2.60
2019-01-18T07:57:55.224Z,2.12
2019-01-18T08:00:30.406Z,5.62
2019-01-18T08:03:00.574Z,7.05
2019-01-18T08:05:30.782Z,3.22
2019-01-18T08:08:03.133Z,2.10
2019-01-18T08:10:33.256Z,3.58
2019-01-18T08:13:06.526Z,7.42
2019-01-18T08:15:36.590Z,4.37
2019-01-18T08:18:09.579Z,4.67
2019-01-18T08:20:39.645Z,6.33
2019-01-18T08:23:09.747Z,4.97
2019-01-18T08:25:39.826Z,7.80
2019-01-18T08:28:10.027Z,7.50
2019-01-18T08:30:40.113Z,11.65
2019-01-18T08:33:10.353Z,4.30
2019-01-18T08:35:40.578Z,6.37
2019-01-18T08:38:10.742Z,4.15
2019-01-18T08:40:40.844Z,4.95
2019-01-18T08:43:11.001Z,8.53
2019-01-18T08:45:44.998Z,6.65
2019-01-18T08:48:15.147Z,5.42
2019-01-18T08:50:45.239Z,6.00
2019-01-18T08:53:15.314Z,4.78
2019-01-18T08:55:45.404Z,5.78
2019-01-18T08:58:15.472Z,6.35
2019-01-18T09:00:45.565Z,4.70
2019-01-18T09:03:15.646Z,6.55
2019-01-18T09:05:45.750Z,9.45
2019-01-18T09:08:15.865Z,4.20
2019-01-18T09:10:46.635Z,6.83
2019-01-18T09:13:16.705Z,6.12
2019-01-18T09:15:46.939Z,5.30
2019-01-18T09:18:17.008Z,5.20
2019-01-18T09:20:47.111Z,5.03
2019-01-18T09:23:17.271Z,7.65
2019-01-18T09:25:47.373Z,4.03
2019-01-18T09:28:17.585Z,5.22
2019-01-18T09:30:47.669Z,4.15
2019-01-18T09:33:17.847Z,6.12
2019-01-18T09:35:47.947Z,3.47
2019-01-18T09:38:18.181Z,5.55
2019-01-18T09:40:48.318Z,4.70
2019-01-18T09:43:18.408Z,5.08
2019-01-18T09:45:48.510Z,6.12
2019-01-18T09:48:18.596Z,7.90
2019-01-18T09:50:48.697Z,2.35
2019-01-18T09:53:18.799Z,3.85
2019-01-18T09:55:48.908Z,6.85
2019-01-18T09:58:19.432Z,4.78
2019-01-18T10:00:49.604Z,4.05
2019-01-18T10:03:19.687Z,4.40
2019-01-18T10:05:49.793Z,4.25
2019-01-18T10:08:19.870Z,5.97
2019-01-18T10:10:49.973Z,4.33
2019-01-18T10:13:20.060Z,4.37
2019-01-18T10:15:50.303Z,7.37
2019-01-18T10:18:20.374Z,6.83
2019-01-18T10:20:50.482Z,5.08
2019-01-18T10:23:20.568Z,7.03
2019-01-18T10:25:50.683Z,4.08
2019-01-18T10:28:20.767Z,3.67
2019-01-18T10:30:50.872Z,3.92
2019-01-18T10:33:21.036Z,6.58
2019-01-18T10:35:51.127Z,6.05
2019-01-18T10:38:21.212Z,4.03
2019-01-18T10:40:51.319Z,4.22
2019-01-18T10:43:21.573Z,5.80
2019-01-18T10:45:51.673Z,4.33
2019-01-18T10:48:21.756Z,5.03
2019-01-18T10:50:51.863Z,8.18
2019-01-18T10:53:21.952Z,6.53
2019-01-18T10:55:52.059Z,6.15
2019-01-18T10:58:22.144Z,6.72
2019-01-18T11:00:52.243Z,5.28
2019-01-18T11:03:22.322Z,5.62
2019-01-18T11:05:52.432Z,5.25
2019-01-18T11:08:22.514Z,5.05
2019-01-18T11:10:52.813Z,6.05
2019-01-18T11:13:22.936Z,4.85
2019-01-18T11:15:53.066Z,5.40
2019-01-18T11:18:23.158Z,7.15
2019-01-18T11:20:56.224Z,7.70
2019-01-18T11:23:26.302Z,4.97
2019-01-18T11:25:56.406Z,6.25
2019-01-18T11:28:26.598Z,7.20
2019-01-18T11:30:56.710Z,5.47
2019-01-18T11:33:26.794Z,5.95
2019-01-18T11:35:56.890Z,5.33
2019-01-18T11:38:26.974Z,6.60
2019-01-18T11:40:57.070Z,6.00
2019-01-18T11:43:27.139Z,3.62
2019-01-18T11:45:57.235Z,3.35
2019-01-18T11:48:27.364Z,5.20
2019-01-18T11:50:57.805Z,6.72
2019-01-18T11:53:27.869Z,6.90
2019-01-18T11:55:58.006Z,4.50
2019-01-18T11:58:28.081Z,8.18
2019-01-18T12:00:58.173Z,4.42
2019-01-18T12:03:28.248Z,5.15
2019-01-18T12:05:58.348Z,7.95
2019-01-18T12:08:28.431Z,7.45
2019-01-18T12:10:58.542Z,7.17
2019-01-18T12:13:28.638Z,7.75
2019-01-18T12:15:58.731Z,4.10
2019-01-18T12:18:28.819Z,9.45
2019-01-18T12:20:58.914Z,10.75
2019-01-18T12:23:28.987Z,6.35
2019-01-18T12:25:59.138Z,5.42
2019-01-18T12:28:29.255Z,5.85
2019-01-18T12:30:59.360Z,7.20
2019-01-18T12:33:29.438Z,7.22
2019-01-18T12:35:59.533Z,4.83
2019-01-18T12:38:29.631Z,4.70
2019-01-18T12:40:59.786Z,6.47
2019-01-18T12:43:29.844Z,5.70
2019-01-18T12:45:59.947Z,5.95
2019-01-18T12:48:30.022Z,6.42
2019-01-18T12:51:00.178Z,5.40
2019-01-18T12:53:30.306Z,4.97
2019-01-18T12:56:00.399Z,7.58
2019-01-18T12:58:30.477Z,9.65
2019-01-18T13:01:00.661Z,5.35
2019-01-18T13:03:30.714Z,7.95
2019-01-18T13:06:00.951Z,6.00
2019-01-18T13:08:31.069Z,4.30
2019-01-18T13:11:01.200Z,3.70
2019-01-18T13:13:31.263Z,4.72
2019-01-18T13:16:17.642Z,4.72
2019-01-18T13:18:48.548Z,5.90
2019-01-18T13:21:18.650Z,3.33
2019-01-18T13:23:48.726Z,5.70
2019-01-18T13:26:18.838Z,6.92
2019-01-18T13:28:48.917Z,5.28
2019-01-18T13:31:19.058Z,5.15
2019-01-18T13:33:49.093Z,4.03
2019-01-18T13:36:19.196Z,3.50
2019-01-18T13:38:49.290Z,3.60
2019-01-18T13:41:19.388Z,3.72
2019-01-18T13:43:49.462Z,7.80
2019-01-18T13:46:19.561Z,7.17
2019-01-18T13:48:49.632Z,6.35
2019-01-18T13:51:19.741Z,6.40
2019-01-18T13:53:49.818Z,5.30
2019-01-18T13:56:19.918Z,5.72
2019-01-18T13:58:50.005Z,5.22
2019-01-18T14:01:20.118Z,5.42
2019-01-18T14:03:50.191Z,5.62
2019-01-18T14:06:20.293Z,5.47
2019-01-18T14:08:50.370Z,5.45
2019-01-18T14:11:20.474Z,6.65
2019-01-18T14:14:09.981Z,5.83
2019-01-18T14:16:40.085Z,4.40
2019-01-18T14:19:10.155Z,3.33
2019-01-18T14:21:52.307Z,6.40
2019-01-18T14:24:22.440Z,3.80
2019-01-18T14:26:52.538Z,9.85
2019-01-18T14:29:22.607Z,7.85
2019-01-18T14:31:52.741Z,6.25
2019-01-18T14:34:22.810Z,4.67
2019-01-18T14:36:52.914Z,10.45
2019-01-18T14:39:23.018Z,8.68
2019-01-18T14:41:53.166Z,4.15
2019-01-18T14:44:23.252Z,9.18
2019-01-18T14:46:53.358Z,12.23
2019-01-18T14:49:23.434Z,6.37
2019-01-18T14:51:53.539Z,5.00
2019-01-18T14:54:23.615Z,8.13
2019-01-18T14:56:54.695Z,6.15
2019-01-18T14:59:24.762Z,6.62
2019-01-18T15:01:54.952Z,9.13
2019-01-18T15:04:25.056Z,7.20
2019-01-18T15:06:55.132Z,11.18
2019-01-18T15:09:25.240Z,10.85
2019-01-18T15:11:55.421Z,11.08
2019-01-18T15:14:25.533Z,7.30
2019-01-18T15:17:15.075Z,7.80
2019-01-18T15:19:45.149Z,6.47
2019-01-18T15:22:15.253Z,11.33
2019-01-18T15:24:45.328Z,9.73
2019-01-18T15:27:15.438Z,8.73
2019-01-18T15:29:45.699Z,5.53
2019-01-18T15:32:15.793Z,7.53
2019-01-18T15:34:45.887Z,4.83
2019-01-18T15:37:16.065Z,5.53
2019-01-18T15:39:46.164Z,5.87
2019-01-18T15:42:16.317Z,4.97
2019-01-18T15:44:46.407Z,4.97
2019-01-18T15:47:16.535Z,5.37
2019-01-18T15:49:46.639Z,6.12
2019-01-18T15:52:16.732Z,5.95
2019-01-18T15:54:46.843Z,6.33
2019-01-18T15:57:18.298Z,5.15
2019-01-18T15:59:48.438Z,8.40
2019-01-18T16:02:18.514Z,6.78
2019-01-18T16:04:48.614Z,7.47
2019-01-18T16:07:18.685Z,5.22
2019-01-18T16:09:48.789Z,7.97
2019-01-18T16:12:18.861Z,8.20
2019-01-18T16:14:48.995Z,8.35
2019-01-18T16:17:19.885Z,5.78
2019-01-18T16:19:49.989Z,13.22
2019-01-18T16:22:20.065Z,9.83
2019-01-18T16:24:50.175Z,9.85
2019-01-18T16:27:20.253Z,8.55
2019-01-18T16:29:50.354Z,8.23
2019-01-18T16:32:20.768Z,7.97
2019-01-18T16:35:04.894Z,7.58
2019-01-18T16:37:34.964Z,8.30
2019-01-18T16:40:09.952Z,7.60
2019-01-18T16:42:40.049Z,6.65
2019-01-18T16:45:12.324Z,7.20
2019-01-18T16:47:42.440Z,11.60
2019-01-18T16:50:14.583Z,10.25
2019-01-18T16:52:44.733Z,6.15
2019-01-18T16:55:15.677Z,8.55
2019-01-18T16:57:45.752Z,11.60
2019-01-18T17:00:32.449Z,8.73
2019-01-18T17:03:02.519Z,8.08
2019-01-18T17:05:32.626Z,11.83
2019-01-18T17:08:02.703Z,7.85
2019-01-18T17:10:32.815Z,8.25
2019-01-18T17:13:02.931Z,8.73
2019-01-18T17:15:33.202Z,7.85
2019-01-18T17:18:03.360Z,9.78
2019-01-18T17:20:40.300Z,9.70
2019-01-18T17:23:10.426Z,11.55
2019-01-18T17:25:40.581Z,10.88
2019-01-18T17:28:10.622Z,13.13
2019-01-18T17:30:40.720Z,9.50
2019-01-18T17:33:10.793Z,10.95
2019-01-18T17:35:54.802Z,11.22
2019-01-18T17:38:59.459Z,8.68
2019-01-18T17:42:19.329Z,13.72
2019-01-18T17:45:11.003Z,10.55
2019-01-18T17:47:54.805Z,10.15
2019-01-18T17:51:09.254Z,10.38
2019-01-18T17:54:00.082Z,8.15
2019-01-18T17:56:46.754Z,8.48
2019-01-18T17:59:48.763Z,11.40
2019-01-18T18:02:49.933Z,13.38
2019-01-18T18:05:33.917Z,14.10
2019-01-18T18:08:18.011Z,9.03
2019-01-18T18:11:39.831Z,11.70
2019-01-18T18:14:29.352Z,10.13
2019-01-18T18:17:19.035Z,11.08
2019-01-18T18:20:18.559Z,12.58
2019-01-18T18:23:12.685Z,12.07
2019-01-18T18:26:26.984Z,10.65
2019-01-18T18:29:24.886Z,9.10
2019-01-18T18:32:17.860Z,11.48
2019-01-18T18:35:32.230Z,12.33
2019-01-18T18:38:35.624Z,11.78
2019-01-18T18:41:32.561Z,12.90
2019-01-18T18:44:24.945Z,9.10
2019-01-18T18:47:23.389Z,11.18
2019-01-18T18:50:17.353Z,12.35
2019-01-18T18:53:24.943Z,17.20
2019-01-18T18:56:28.492Z,14.60
2019-01-18T18:59:25.961Z,11.00
2019-01-18T19:02:31.358Z,17.92
2019-01-18T19:05:30.833Z,12.53
2019-01-18T19:08:08.692Z,12.10
2019-01-18T19:10:46.408Z,11.05
2019-01-18T19:13:33.837Z,14.13
2019-01-18T19:16:11.271Z,15.95
2019-01-18T19:19:07.155Z,20.60
2019-01-18T19:22:15.295Z,19.57
2019-01-18T19:25:20.461Z,12.88
2019-01-18T19:28:04.294Z,13.93
2019-01-18T19:30:55.919Z,11.60
2019-01-18T19:33:48.799Z,10.55
2019-01-18T19:36:35.384Z,12.70
2019-01-18T19:39:46.501Z,16.35
2019-01-18T19:43:03.684Z,14.33
2019-01-18T19:45:52.923Z,16.80
2019-01-18T19:48:49.891Z,14.40
2019-01-18T19:51:42.876Z,15.72
2019-01-18T19:54:26.691Z,13.95
2019-01-18T19:57:30.079Z,18.42
2019-01-18T20:00:10.593Z,19.87
2019-01-18T20:02:56.139Z,21.83
2019-01-18T20:05:52.867Z,20.82
2019-01-18T20:08:33.410Z,13.38
2019-01-18T20:11:26.078Z,16.65
2019-01-18T20:14:34.261Z,15.93
2019-01-18T20:17:37.204Z,23.92
2019-01-18T20:20:45.392Z,19.40
2019-01-18T20:23:41.318Z,15.32
2019-01-18T20:26:21.406Z,14.35
2019-01-18T20:29:31.226Z,15.48
2019-01-18T20:32:29.849Z,16.40
2019-01-18T20:35:45.525Z,17.00
2019-01-18T20:38:56.551Z,16.27
2019-01-18T20:42:08.901Z,14.30
2019-01-18T20:44:43.894Z,13.98
2019-01-18T20:47:57.102Z,12.25
2019-01-18T20:50:49.681Z,17.20
2019-01-18T20:53:53.399Z,14.60
2019-01-18T20:56:49.564Z,18.70
2019-01-18T20:59:30.806Z,12.78
2019-01-18T21:02:08.466Z,14.65
2019-01-18T21:05:12.069Z,14.00
2019-01-18T21:08:08.015Z,12.95
2019-01-18T21:10:54.968Z,13.58
2019-01-18T21:13:41.498Z,16.02
2019-01-18T21:16:37.535Z,17.10
2019-01-18T21:19:20.899Z,14.93
2019-01-18T21:22:10.642Z,13.30
2019-01-18T21:25:12.114Z,16.80
2019-01-18T21:28:23.587Z,18.40
2019-01-18T21:31:15.778Z,22.87
2019-01-18T21:34:19.536Z,18.73
2019-01-18T21:37:06.370Z,17.50
2019-01-18T21:40:24.705Z,15.98
2019-01-18T21:43:26.531Z,19.10
2019-01-18T21:46:28.715Z,18.85
2019-01-18T21:49:09.452Z,13.50
2019-01-18T21:52:11.626Z,13.62
2019-01-18T21:54:52.199Z,16.75
2019-01-18T21:57:56.517Z,20.32
2019-01-18T22:00:42.984Z,19.95
2019-01-18T22:03:42.510Z,16.32
2019-01-18T22:06:29.123Z,18.17
2019-01-18T22:09:18.948Z,15.93
2019-01-18T22:12:20.673Z,17.60
2019-01-18T22:15:19.791Z,13.48
2019-01-18T22:18:03.253Z,20.10
2019-01-18T22:20:56.147Z,13.93
2019-01-18T22:23:36.934Z,18.52
2019-01-18T22:26:34.900Z,16.42
2019-01-18T22:29:24.934Z,14.05
2019-01-18T22:32:17.683Z,13.13
2019-01-18T22:35:09.184Z,15.48
2019-01-18T22:38:01.977Z,15.40
2019-01-18T22:41:05.713Z,12.98
2019-01-18T22:44:06.357Z,16.60
2019-01-18T22:46:56.639Z,14.18
2019-01-18T22:49:31.606Z,10.80
2019-01-18T22:52:33.563Z,11.33
2019-01-18T22:55:39.205Z,15.60
2019-01-18T22:58:45.726Z,18.62
2019-01-18T23:01:53.977Z,16.73
2019-01-18T23:04:37.710Z,15.40
2019-01-18T23:07:12.829Z,12.30
2019-01-18T23:10:27.194Z,14.78
2019-01-18T23:13:13.943Z,14.18
2019-01-18T23:16:25.286Z,12.65
2019-01-18T23:19:03.259Z,15.35
2019-01-18T23:21:56.371Z,15.28
2019-01-18T23:24:53.258Z,13.53
2019-01-18T23:27:34.074Z,14.33
2019-01-18T23:30:14.323Z,19.05
2019-01-18T23:33:16.285Z,15.63
2019-01-18T23:35:53.910Z,12.35
2019-01-18T23:39:02.020Z,16.57
2019-01-18T23:42:14.135Z,13.50
2019-01-18T23:45:18.703Z,13.68
2019-01-18T23:48:05.689Z,13.95
2019-01-18T23:50:52.083Z,19.23
2019-01-18T23:53:48.095Z,22.73
2019-01-18T23:56:47.256Z,11.68
2019-01-18T23:59:28.255Z,12.85
